SPTN/TCQ METAR and TAF weather

Enter ICAO airport designator
Station Type Date Time Source
SPTN METAR 2020/03/29 15:00 UTC NOAA

SPTN 291500Z 19005KT 130V260 CAVOK 23/15 Q1014 RMK PP000


Station Type Date Time Source
SPTN Decoded METAR 2020/03/29 15:00 UTC NOAA

Tacna, Peru (SPTN) 18-04S 070-18W 469M
Mar 29, 2020 - 11:00 AM EDT / 2020.03.29 1500 UTC
Wind: from the S (190 degrees) at 6 MPH (5 KT) (direction variable):0
Visibility: greater than 7 mile(s):0
Temperature: 73 F (23 C)
Dew Point: 59 F (15 C)
Relative Humidity: 60%
Pressure (altimeter): 29.94 in. Hg (1014 hPa)
ob: SPTN 291500Z 19005KT 130V260 CAVOK 23/15 Q1014 RMK PP000
cycle: 15

Station Type Date Time Source
SPTN TAF 2020/03/29 12:33 UTC NOAA

TAF SPTN 291330Z 2912/3012 22004KT 9999 SCT040 TX27/2919Z TN17/3010Z
FM291900 22010KT CAVOK
FM300100 25003KT 9999 SCT030

Example: see airport list